Time;durP1;ratioP1;P1;durP2;ratioP2;P2;SDS_P1;SDS_P2;PMS_P1;PMS_P2;Temp;Humidity;BMP_temperature;BMP_pressure;BME280_temperature;BME280_humidity;BME280_pressure;Samples;Min_cycle;Max_cycle;Signal;HPM_P1;HPM_P2
2023/08/05 00:00:51;;;;;;;0.63;0.50;;;28.30;60.90;;;;;;6244391;23;20167;-86
2023/08/05 00:03:20;;;;;;;0.20;0.20;;;28.20;61.30;;;;;;6243210;23;20171;-84
2023/08/05 00:05:48;;;;;;;0.73;0.68;;;28.20;61.70;;;;;;6242090;23;20651;-86
2023/08/05 00:08:18;;;;;;;0.30;0.30;;;28.10;62.00;;;;;;6242016;23;20178;-83
2023/08/05 00:10:47;;;;;;;0.70;0.43;;;28.10;62.00;;;;;;6243604;23;20248;-84
2023/08/05 00:13:15;;;;;;;0.25;0.25;;;28.10;62.20;;;;;;6241173;23;20176;-82
2023/08/05 00:15:44;;;;;;;0.32;0.32;;;28.00;62.60;;;;;;6242341;23;20225;-83
2023/08/05 00:18:12;;;;;;;0.60;0.35;;;28.00;63.30;;;;;;6239006;23;20210;-86
2023/08/05 00:20:41;;;;;;;0.55;0.50;;;27.90;63.10;;;;;;6241735;23;20170;-84
2023/08/05 00:23:10;;;;;;;0.90;0.80;;;27.90;63.60;;;;;;6240833;23;20169;-83
2023/08/05 00:25:39;;;;;;;0.40;0.30;;;27.80;64.10;;;;;;6243598;23;20170;-85
2023/08/05 00:28:08;;;;;;;0.40;0.40;;;27.80;65.20;;;;;;6238367;23;20166;-85
2023/08/05 00:30:36;;;;;;;0.38;0.32;;;27.70;65.30;;;;;;6242806;23;20229;-84
2023/08/05 00:33:05;;;;;;;1.13;0.55;;;27.70;65.90;;;;;;6241184;23;20167;-83
2023/08/05 00:35:33;;;;;;;0.30;0.30;;;27.70;66.00;;;;;;6243058;23;20201;-84
2023/08/05 00:38:02;;;;;;;0.47;0.40;;;27.60;67.20;;;;;;6240634;23;20193;-84
2023/08/05 00:40:31;;;;;;;0.98;0.50;;;27.60;66.70;;;;;;6242520;23;20167;-84
2023/08/05 00:43:00;;;;;;;0.50;0.50;;;27.60;68.20;;;;;;6242452;23;20171;-82
2023/08/05 00:45:29;;;;;;;0.70;0.55;;;27.60;68.10;;;;;;6242137;23;20639;-84
2023/08/05 00:47:58;;;;;;;0.52;0.52;;;27.50;68.10;;;;;;6241987;23;20167;-85
2023/08/05 00:50:27;;;;;;;0.50;0.50;;;27.50;68.20;;;;;;6243096;23;20245;-84
2023/08/05 00:52:56;;;;;;;1.23;0.70;;;27.50;68.90;;;;;;6240913;23;20478;-85
2023/08/05 00:55:25;;;;;;;0.98;0.73;;;27.40;70.60;;;;;;6241923;23;20163;-86
2023/08/05 00:57:53;;;;;;;1.45;0.80;;;27.30;72.00;;;;;;6242207;23;20206;-84
2023/08/05 01:00:23;;;;;;;1.45;1.08;;;27.30;71.10;;;;;;6241662;23;20177;-86
2023/08/05 01:02:52;;;;;;;0.47;0.47;;;27.20;71.70;;;;;;6241574;23;20170;-84
2023/08/05 01:05:25;;;;;;;0.70;0.70;;;27.20;72.40;;;;;;6241818;23;20155;-86
2023/08/05 01:07:55;;;;;;;2.10;0.40;;;27.20;73.50;;;;;;6242963;23;20178;-84
2023/08/05 01:10:23;;;;;;;0.45;0.45;;;27.10;74.40;;;;;;6242812;23;20273;-86
2023/08/05 01:12:52;;;;;;;2.13;1.25;;;27.10;74.90;;;;;;6242212;23;20163;-83
2023/08/05 01:15:20;;;;;;;2.15;0.90;;;27.10;74.40;;;;;;6240041;23;20163;-84
2023/08/05 01:17:53;;;;;;;0.63;0.63;;;27.00;76.10;;;;;;6241027;23;20202;-84
2023/08/05 01:20:28;;;;;;;0.80;0.50;;;27.00;75.90;;;;;;6243272;23;20609;-85
2023/08/05 01:23:07;;;;;;;1.02;0.75;;;27.00;76.80;;;;;;6239318;23;20158;-86
2023/08/05 01:25:37;;;;;;;2.50;2.15;;;26.90;76.60;;;;;;6241862;23;20151;-83
2023/08/05 01:28:07;;;;;;;1.27;0.88;;;26.90;78.40;;;;;;6241735;23;20170;-83
2023/08/05 01:30:36;;;;;;;1.10;0.90;;;26.90;78.10;;;;;;6243533;23;20857;-86
2023/08/05 01:33:04;;;;;;;0.98;0.63;;;26.80;77.60;;;;;;6242092;23;20170;-85
2023/08/05 01:35:33;;;;;;;1.02;0.95;;;26.80;78.10;;;;;;6243037;23;20175;-83
2023/08/05 01:38:01;;;;;;;0.60;0.60;;;26.80;78.70;;;;;;6240771;23;20278;-83
2023/08/05 01:40:30;;;;;;;0.38;0.38;;;26.80;79.10;;;;;;6243497;23;20612;-84
2023/08/05 01:43:00;;;;;;;0.35;0.35;;;26.70;79.10;;;;;;6241758;23;20275;-83
2023/08/05 01:45:28;;;;;;;0.98;0.98;;;26.70;78.90;;;;;;6242809;23;20176;-84
2023/08/05 01:47:56;;;;;;;0.68;0.50;;;26.70;80.00;;;;;;6241753;23;20220;-83
2023/08/05 01:50:25;;;;;;;1.35;0.80;;;26.70;81.20;;;;;;6244058;23;20479;-84
2023/08/05 01:52:53;;;;;;;0.52;0.50;;;26.70;80.90;;;;;;6242122;23;20571;-84
2023/08/05 01:55:22;;;;;;;0.60;0.60;;;26.70;81.00;;;;;;6242406;23;20241;-85
2023/08/05 01:57:50;;;;;;;0.73;0.65;;;26.60;81.20;;;;;;6240718;23;20564;-83
2023/08/05 02:00:21;;;;;;;1.13;0.93;;;26.60;83.10;;;;;;6240582;23;20253;-88
2023/08/05 02:02:50;;;;;;;1.95;0.50;;;26.50;83.50;;;;;;6242280;23;20293;-84
2023/08/05 02:05:19;;;;;;;0.60;0.60;;;26.50;84.30;;;;;;6242552;23;20166;-83
2023/08/05 02:07:47;;;;;;;1.02;0.90;;;26.50;84.10;;;;;;6242742;23;20546;-84
2023/08/05 02:10:16;;;;;;;1.10;0.43;;;26.50;84.40;;;;;;6241572;23;20629;-83
2023/08/05 02:12:44;;;;;;;1.35;0.85;;;26.50;84.00;;;;;;6243346;23;20196;-83
2023/08/05 02:15:13;;;;;;;3.42;0.63;;;26.40;84.80;;;;;;6241665;23;20166;-85
2023/08/05 02:17:42;;;;;;;1.08;0.63;;;26.40;84.70;;;;;;6239217;23;20210;-84
2023/08/05 02:20:12;;;;;;;1.85;0.98;;;26.40;85.20;;;;;;6241360;23;20283;-85
2023/08/05 02:22:40;;;;;;;1.42;0.93;;;26.40;86.10;;;;;;6238701;23;20216;-83
2023/08/05 02:25:09;;;;;;;1.35;0.77;;;26.30;86.80;;;;;;6237036;23;20490;-84
2023/08/05 02:27:37;;;;;;;1.30;1.15;;;26.30;86.70;;;;;;6239296;23;20162;-84
2023/08/05 02:30:08;;;;;;;0.95;0.70;;;26.30;88.00;;;;;;6238679;23;20177;-84
2023/08/05 02:32:36;;;;;;;1.17;1.08;;;26.20;88.40;;;;;;6242470;23;20499;-84
2023/08/05 02:35:07;;;;;;;0.82;0.75;;;26.20;87.60;;;;;;6241843;23;20232;-85
2023/08/05 02:37:35;;;;;;;1.35;1.25;;;26.20;87.40;;;;;;6240841;23;20190;-84
2023/08/05 02:40:04;;;;;;;2.67;1.52;;;26.10;87.60;;;;;;6239125;23;20638;-84
2023/08/05 02:42:32;;;;;;;0.95;0.90;;;26.10;88.90;;;;;;6241187;23;20170;-86
2023/08/05 02:45:01;;;;;;;1.45;0.57;;;26.10;89.50;;;;;;6240212;23;20616;-84
2023/08/05 02:47:29;;;;;;;1.55;1.02;;;26.10;89.10;;;;;;6242211;23;20167;-84
2023/08/05 02:49:58;;;;;;;2.33;1.67;;;26.10;90.10;;;;;;6239231;23;20170;-83
2023/08/05 02:52:28;;;;;;;1.75;0.73;;;26.00;90.00;;;;;;6239794;23;20206;-84
2023/08/05 02:54:56;;;;;;;0.77;0.75;;;26.00;90.00;;;;;;6241580;23;20185;-86
2023/08/05 02:57:25;;;;;;;1.42;1.10;;;26.00;89.30;;;;;;6241399;23;20233;-84
2023/08/05 02:59:53;;;;;;;0.63;0.63;;;26.00;89.70;;;;;;6239975;23;20171;-85
2023/08/05 03:02:21;;;;;;;1.27;0.93;;;25.90;90.10;;;;;;6240383;23;20166;-84
2023/08/05 03:04:50;;;;;;;1.45;0.90;;;26.00;90.00;;;;;;6240875;23;20170;-83
2023/08/05 03:07:18;;;;;;;1.08;0.98;;;26.00;90.20;;;;;;6240295;23;20166;-86
2023/08/05 03:09:48;;;;;;;2.28;0.98;;;26.00;90.30;;;;;;6241117;23;20166;-85
2023/08/05 03:12:17;;;;;;;2.10;1.30;;;25.90;90.40;;;;;;6241442;23;20170;-85
2023/08/05 03:14:46;;;;;;;0.85;0.70;;;25.90;90.50;;;;;;6240908;23;20176;-84
2023/08/05 03:17:15;;;;;;;1.00;0.80;;;25.90;90.40;;;;;;6238299;23;20194;-84
2023/08/05 03:19:43;;;;;;;0.40;0.40;;;25.90;90.70;;;;;;6241190;23;20190;-85
2023/08/05 03:22:11;;;;;;;0.70;0.70;;;25.90;90.80;;;;;;6241334;23;20166;-85
2023/08/05 03:24:40;;;;;;;1.02;0.80;;;25.90;90.90;;;;;;6240370;23;20181;-85
2023/08/05 03:27:10;;;;;;;1.50;0.65;;;25.90;91.00;;;;;;6241557;23;20163;-85
2023/08/05 03:29:38;;;;;;;0.55;0.45;;;25.90;90.70;;;;;;6239574;23;20166;-85
2023/08/05 03:32:07;;;;;;;1.95;1.00;;;25.90;90.80;;;;;;6241441;23;20247;-86
2023/08/05 03:34:36;;;;;;;1.67;1.25;;;25.90;91.10;;;;;;6240031;23;20739;-85
2023/08/05 03:37:04;;;;;;;0.55;0.55;;;25.90;91.30;;;;;;6239748;23;20527;-85
2023/08/05 03:39:33;;;;;;;0.93;0.65;;;25.90;91.20;;;;;;6239533;23;20638;-84
2023/08/05 03:42:01;;;;;;;1.92;1.65;;;25.90;91.40;;;;;;6242190;23;20249;-84
2023/08/05 03:44:31;;;;;;;1.15;0.85;;;25.90;91.30;;;;;;6241872;23;20173;-83
2023/08/05 03:46:59;;;;;;;1.70;1.23;;;25.80;91.20;;;;;;6239054;23;20174;-84
2023/08/05 03:49:28;;;;;;;1.45;0.75;;;25.90;91.40;;;;;;6240023;23;20177;-83
2023/08/05 03:51:57;;;;;;;1.33;1.23;;;25.90;91.80;;;;;;6238408;23;20178;-87
2023/08/05 03:54:26;;;;;;;1.10;0.85;;;25.90;91.80;;;;;;6240941;23;20198;-83
2023/08/05 03:56:58;;;;;;;0.80;0.80;;;25.80;91.60;;;;;;6242689;23;20170;-85
2023/08/05 03:59:26;;;;;;;1.55;1.27;;;25.80;91.90;;;;;;6241262;23;20192;-83
2023/08/05 04:01:56;;;;;;;1.38;0.95;;;25.80;92.00;;;;;;6241131;23;20162;-83
2023/08/05 04:04:24;;;;;;;3.03;0.98;;;25.80;91.90;;;;;;6240797;23;20237;-85
2023/08/05 04:06:53;;;;;;;0.70;0.70;;;25.90;91.90;;;;;;6238681;23;20171;-85
2023/08/05 04:09:22;;;;;;;1.05;0.55;;;25.90;91.90;;;;;;6240910;23;20667;-84
2023/08/05 04:11:51;;;;;;;1.00;0.93;;;25.90;92.00;;;;;;6242844;23;20177;-88
2023/08/05 04:14:20;;;;;;;1.40;1.30;;;25.90;92.00;;;;;;6235833;23;20916;-82
2023/08/05 04:16:49;;;;;;;1.35;0.70;;;25.90;92.50;;;;;;6237840;23;20171;-83
2023/08/05 04:19:19;;;;;;;1.30;1.20;;;25.90;92.10;;;;;;6239719;23;20194;-85
2023/08/05 04:21:51;;;;;;;0.65;0.57;;;25.90;92.00;;;;;;6240079;23;20155;-84
2023/08/05 04:24:24;;;;;;;1.08;0.85;;;26.00;92.10;;;;;;6242395;23;20245;-84
2023/08/05 04:26:53;;;;;;;1.25;0.93;;;26.00;91.80;;;;;;6243277;23;20788;-86
2023/08/05 04:29:23;;;;;;;0.50;0.50;;;26.00;92.00;;;;;;6242022;23;20178;-85
2023/08/05 04:31:52;;;;;;;0.63;0.63;;;26.00;92.60;;;;;;6241373;23;20170;-85
2023/08/05 04:34:22;;;;;;;0.85;0.68;;;26.00;92.50;;;;;;6241335;23;20170;-83
2023/08/05 04:36:51;;;;;;;1.90;0.93;;;26.00;92.40;;;;;;6242944;23;20171;-84
2023/08/05 04:39:21;;;;;;;0.85;0.80;;;26.10;92.40;;;;;;6240087;23;20639;-82
2023/08/05 04:41:50;;;;;;;1.23;0.82;;;26.10;92.30;;;;;;6242205;23;20200;-85
2023/08/05 04:44:18;;;;;;;1.20;0.80;;;26.10;92.30;;;;;;6241795;23;20170;-83
2023/08/05 04:46:46;;;;;;;1.13;0.90;;;26.10;92.20;;;;;;6242336;23;20166;-83
2023/08/05 04:49:15;;;;;;;2.88;0.73;;;26.20;92.40;;;;;;6242029;23;20185;-85
2023/08/05 04:51:45;;;;;;;0.88;0.80;;;26.20;92.10;;;;;;6241263;23;20677;-84
2023/08/05 04:54:13;;;;;;;0.93;0.80;;;26.20;92.10;;;;;;6242939;23;20167;-84
2023/08/05 04:56:42;;;;;;;2.03;1.63;;;26.30;92.00;;;;;;6243471;23;20171;-85
2023/08/05 04:59:10;;;;;;;0.60;0.60;;;26.20;92.30;;;;;;6242403;22;20269;-83
2023/08/05 05:01:38;;;;;;;0.80;0.47;;;26.30;92.20;;;;;;6241662;23;20559;-88
2023/08/05 05:04:07;;;;;;;1.30;0.65;;;26.30;92.00;;;;;;6241477;23;20687;-85
2023/08/05 05:06:35;;;;;;;0.55;0.55;;;26.40;92.00;;;;;;6242523;23;20166;-86
2023/08/05 05:09:05;;;;;;;0.63;0.63;;;26.40;92.00;;;;;;6241181;23;20163;-84
2023/08/05 05:11:34;;;;;;;1.40;1.10;;;26.40;92.20;;;;;;6243789;23;20679;-85
2023/08/05 05:14:03;;;;;;;1.48;0.43;;;26.40;92.10;;;;;;6241611;23;20624;-85
2023/08/05 05:16:32;;;;;;;2.15;1.52;;;26.40;92.10;;;;;;6242107;23;20174;-82
2023/08/05 05:19:00;;;;;;;0.75;0.60;;;26.50;92.10;;;;;;6238730;23;20651;-84
2023/08/05 05:21:30;;;;;;;0.43;0.38;;;26.50;92.00;;;;;;6239887;23;20175;-86
2023/08/05 05:23:59;;;;;;;1.08;0.60;;;26.50;92.00;;;;;;6239809;23;20213;-85
2023/08/05 05:26:29;;;;;;;0.98;0.93;;;26.60;91.80;;;;;;6244049;23;20875;-85
2023/08/05 05:28:58;;;;;;;1.02;0.93;;;26.60;91.80;;;;;;6240881;23;20183;-84
2023/08/05 05:31:27;;;;;;;1.30;0.82;;;26.70;91.90;;;;;;6240231;23;20171;-84
2023/08/05 05:33:56;;;;;;;0.93;0.73;;;26.70;91.70;;;;;;6240550;23;20166;-84
2023/08/05 05:36:24;;;;;;;0.60;0.60;;;26.70;91.80;;;;;;6243414;23;20249;-86
2023/08/05 05:38:53;;;;;;;0.32;0.32;;;26.70;91.70;;;;;;6241259;23;20232;-82
2023/08/05 05:41:21;;;;;;;0.30;0.30;;;26.80;91.60;;;;;;6241009;23;20166;-82
2023/08/05 05:43:51;;;;;;;0.93;0.90;;;26.80;91.60;;;;;;6241393;23;20171;-84
2023/08/05 05:46:23;;;;;;;1.13;0.55;;;26.90;91.50;;;;;;6239142;23;20162;-83
2023/08/05 05:48:51;;;;;;;0.75;0.55;;;26.90;91.40;;;;;;6241915;23;20217;-84
2023/08/05 05:51:19;;;;;;;0.73;0.55;;;27.00;91.40;;;;;;6239185;23;20181;-82
2023/08/05 05:53:49;;;;;;;1.08;0.50;;;27.00;91.30;;;;;;6242658;23;20170;-84
2023/08/05 05:56:17;;;;;;;0.70;0.70;;;27.10;91.20;;;;;;6244068;23;20169;-84
2023/08/05 05:58:46;;;;;;;2.15;0.93;;;27.10;91.10;;;;;;6241639;23;20513;-85
2023/08/05 06:01:16;;;;;;;2.08;0.93;;;27.20;90.90;;;;;;6241390;23;20249;-83
2023/08/05 06:03:44;;;;;;;0.45;0.38;;;27.20;90.90;;;;;;6241622;23;20171;-85
2023/08/05 06:06:13;;;;;;;0.40;0.40;;;27.30;90.80;;;;;;6241238;23;20166;-85
2023/08/05 06:08:42;;;;;;;0.75;0.50;;;27.30;90.70;;;;;;6240544;23;20171;-82
2023/08/05 06:11:10;;;;;;;0.30;0.22;;;27.40;90.60;;;;;;6237593;23;20166;-80
2023/08/05 06:13:39;;;;;;;0.60;0.60;;;27.50;90.40;;;;;;6237305;23;20369;-80
2023/08/05 06:16:10;;;;;;;1.00;0.73;;;27.50;90.30;;;;;;6236012;23;20155;-84
2023/08/05 06:18:40;;;;;;;0.28;0.28;;;27.60;90.10;;;;;;6241233;22;20213;-84
2023/08/05 06:21:08;;;;;;;0.50;0.50;;;27.70;90.00;;;;;;6239914;23;20202;-80
2023/08/05 06:23:37;;;;;;;0.65;0.60;;;27.70;89.90;;;;;;6242643;23;20250;-86
2023/08/05 06:26:05;;;;;;;0.68;0.68;;;27.70;89.50;;;;;;6240038;23;20169;-82
2023/08/05 06:28:33;;;;;;;0.85;0.60;;;27.80;89.30;;;;;;6240207;23;20168;-83
2023/08/05 06:31:02;;;;;;;0.77;0.75;;;27.90;89.00;;;;;;6240057;23;20166;-83
2023/08/05 06:33:31;;;;;;;0.75;0.47;;;27.90;88.70;;;;;;6240318;23;20177;-82
2023/08/05 06:36:01;;;;;;;0.47;0.47;;;28.00;88.50;;;;;;6241177;23;20496;-81
2023/08/05 06:38:29;;;;;;;2.38;0.77;;;28.00;87.90;;;;;;6241872;23;20619;-81
2023/08/05 06:40:58;;;;;;;1.15;0.73;;;28.10;87.90;;;;;;6241273;23;20204;-82
2023/08/05 06:43:26;;;;;;;0.30;0.30;;;28.10;87.70;;;;;;6241238;23;20167;-82
2023/08/05 06:45:54;;;;;;;0.40;0.40;;;28.20;87.40;;;;;;6242687;23;20166;-83
2023/08/05 06:48:26;;;;;;;0.60;0.55;;;28.30;87.30;;;;;;6241557;23;20175;-81
2023/08/05 06:50:54;;;;;;;5.18;0.80;;;28.30;86.80;;;;;;6241901;23;20166;-82
2023/08/05 06:53:25;;;;;;;0.57;0.57;;;28.40;86.30;;;;;;6239082;23;20249;-82
2023/08/05 06:56:02;;;;;;;1.27;0.63;;;28.40;85.60;;;;;;6238915;23;20162;-86
2023/08/05 06:58:30;;;;;;;0.77;0.60;;;28.50;85.50;;;;;;6239067;23;20170;-84
2023/08/05 07:00:59;;;;;;;0.60;0.47;;;28.60;85.50;;;;;;6241193;23;20186;-83
2023/08/05 07:03:28;;;;;;;0.47;0.40;;;28.70;85.50;;;;;;6242755;23;20175;-85
2023/08/05 07:05:57;;;;;;;0.38;0.38;;;28.70;85.30;;;;;;6241266;23;20190;-83
2023/08/05 07:08:28;;;;;;;0.75;0.65;;;28.80;84.60;;;;;;6241156;23;20172;-83
2023/08/05 07:10:58;;;;;;;0.20;0.20;;;28.80;83.90;;;;;;6243141;23;20672;-86
2023/08/05 07:13:27;;;;;;;0.57;0.50;;;28.90;83.90;;;;;;6241002;23;20159;-82
2023/08/05 07:15:59;;;;;;;0.88;0.82;;;29.00;83.50;;;;;;6241838;23;20499;-85
2023/08/05 07:18:28;;;;;;;5.43;0.85;;;29.00;83.40;;;;;;6240864;23;20194;-86
2023/08/05 07:20:56;;;;;;;0.65;0.40;;;29.00;82.20;;;;;;6241092;23;20240;-86
2023/08/05 07:23:27;;;;;;;9.50;0.63;;;29.10;81.70;;;;;;6242487;23;20174;-85
2023/08/05 07:25:55;;;;;;;1.25;0.60;;;29.10;81.40;;;;;;6243646;23;20182;-87
2023/08/05 07:28:24;;;;;;;3.30;0.52;;;29.20;81.70;;;;;;6241593;23;20249;-85
2023/08/05 07:31:03;;;;;;;0.40;0.40;;;29.30;81.60;;;;;;6244019;23;20185;-85
2023/08/05 07:33:32;;;;;;;0.40;0.30;;;29.30;80.70;;;;;;6238784;23;20218;-87
2023/08/05 07:36:09;;;;;;;2.03;0.47;;;29.30;80.20;;;;;;6237091;23;20170;-87
2023/08/05 07:38:40;;;;;;;0.52;0.52;;;29.40;80.40;;;;;;6242217;23;20189;-83
2023/08/05 07:41:13;;;;;;;0.57;0.40;;;29.40;79.70;;;;;;6241921;23;20660;-85
2023/08/05 07:43:42;;;;;;;0.50;0.50;;;29.50;77.70;;;;;;6240274;23;20216;-87
2023/08/05 07:46:13;;;;;;;0.73;0.50;;;29.50;77.70;;;;;;6239639;22;20206;-87
2023/08/05 07:48:45;;;;;;;0.43;0.43;;;29.60;78.00;;;;;;6239229;23;20173;-86
2023/08/05 07:51:16;;;;;;;0.28;0.28;;;29.70;78.00;;;;;;6237975;23;20175;-86
2023/08/05 07:53:48;;;;;;;0.40;0.40;;;29.70;78.00;;;;;;6238255;23;20224;-86
2023/08/05 07:56:17;;;;;;;0.30;0.30;;;29.70;76.90;;;;;;6241558;23;20234;-84
2023/08/05 07:58:46;;;;;;;1.25;0.68;;;29.80;76.90;;;;;;6243129;23;20630;-84
2023/08/05 08:01:19;;;;;;;0.75;0.60;;;29.90;76.50;;;;;;6242906;23;20198;-84
2023/08/05 08:03:51;;;;;;;3.10;0.88;;;29.90;76.20;;;;;;6242685;23;20537;-83
2023/08/05 08:06:20;;;;;;;0.63;0.50;;;29.90;76.20;;;;;;6242094;23;20158;-85
2023/08/05 08:08:51;;;;;;;0.82;0.70;;;30.00;76.10;;;;;;6242864;23;20245;-85
2023/08/05 08:11:19;;;;;;;0.50;0.50;;;30.10;74.90;;;;;;6243027;23;20250;-83
2023/08/05 08:13:48;;;;;;;0.60;0.60;;;30.10;75.00;;;;;;6242094;23;20502;-85
2023/08/05 08:16:18;;;;;;;0.52;0.40;;;30.20;74.50;;;;;;6241713;23;20175;-85
2023/08/05 08:18:46;;;;;;;0.30;0.30;;;30.20;74.20;;;;;;6240730;23;20212;-81
2023/08/05 08:21:15;;;;;;;0.93;0.60;;;30.20;72.90;;;;;;6243098;23;20225;-81
2023/08/05 08:23:43;;;;;;;0.43;0.43;;;30.30;72.80;;;;;;6242948;23;20170;-86
2023/08/05 08:26:13;;;;;;;1.95;0.95;;;30.40;72.80;;;;;;6242724;23;20817;-81
2023/08/05 08:28:42;;;;;;;10.18;0.82;;;30.40;72.70;;;;;;6239727;23;20171;-81
2023/08/05 08:31:10;;;;;;;0.88;0.73;;;30.50;72.50;;;;;;6240579;23;20539;-81
2023/08/05 08:33:39;;;;;;;0.43;0.38;;;30.50;72.30;;;;;;6241559;23;20252;-83
2023/08/05 08:36:07;;;;;;;0.50;0.50;;;30.50;71.30;;;;;;6243353;23;20174;-82
2023/08/05 08:38:36;;;;;;;0.90;0.57;;;30.50;69.80;;;;;;6241798;23;20166;-80
2023/08/05 08:41:04;;;;;;;0.50;0.50;;;30.60;70.00;;;;;;6243181;23;20647;-81
2023/08/05 08:43:35;;;;;;;0.45;0.45;;;30.70;70.60;;;;;;6244388;23;20546;-84
2023/08/05 08:46:05;;;;;;;0.20;0.20;;;30.70;69.70;;;;;;6244608;23;20178;-83
2023/08/05 08:48:35;;;;;;;0.40;0.40;;;30.80;69.90;;;;;;6241091;23;20166;-83
2023/08/05 08:51:04;;;;;;;0.50;0.50;;;30.80;68.80;;;;;;6243391;23;20210;-82
2023/08/05 08:53:34;;;;;;;0.80;0.40;;;30.90;68.70;;;;;;6242880;23;20686;-80
2023/08/05 08:56:02;;;;;;;0.30;0.30;;;30.90;68.80;;;;;;6241641;23;20210;-81
2023/08/05 08:58:30;;;;;;;0.60;0.45;;;31.00;69.10;;;;;;6239022;22;20616;-81
2023/08/05 09:01:01;;;;;;;6.38;0.50;;;31.10;68.50;;;;;;6242250;23;20234;-80
2023/08/05 09:03:34;;;;;;;0.88;0.55;;;31.10;68.20;;;;;;6241395;23;20158;-81
2023/08/05 09:06:02;;;;;;;0.40;0.40;;;31.10;67.70;;;;;;6243596;23;20194;-80
2023/08/05 09:08:33;;;;;;;0.40;0.40;;;31.20;67.70;;;;;;6242151;23;20209;-82
2023/08/05 09:11:02;;;;;;;0.28;0.28;;;31.20;68.00;;;;;;6241844;23;20182;-81
2023/08/05 09:13:31;;;;;;;0.32;0.30;;;31.30;67.20;;;;;;6239370;23;20245;-80
2023/08/05 09:16:01;;;;;;;0.38;0.38;;;31.30;66.90;;;;;;6242340;23;20532;-81
2023/08/05 09:18:31;;;;;;;0.43;0.35;;;31.30;66.60;;;;;;6241230;23;20194;-80
2023/08/05 09:21:01;;;;;;;0.57;0.57;;;31.40;66.90;;;;;;6242250;23;20187;-79
2023/08/05 09:23:30;;;;;;;0.30;0.30;;;31.40;67.00;;;;;;6242959;23;20158;-79
2023/08/05 09:25:58;;;;;;;0.50;0.45;;;31.50;66.80;;;;;;6243817;23;20166;-80
2023/08/05 09:28:31;;;;;;;0.22;0.22;;;31.50;65.80;;;;;;6240436;23;20616;-82
2023/08/05 09:31:17;;;;;;;0.55;0.50;;;31.50;64.10;;;;;;6240934;23;20174;-81
2023/08/05 09:33:46;;;;;;;0.40;0.40;;;31.60;63.80;;;;;;6235959;23;20174;-81
2023/08/05 09:36:15;;;;;;;0.95;0.63;;;31.60;64.10;;;;;;6236465;23;20167;-83
2023/08/05 09:38:46;;;;;;;0.30;0.30;;;31.70;64.40;;;;;;6242441;23;20188;-82
2023/08/05 09:41:14;;;;;;;0.45;0.38;;;31.80;64.60;;;;;;6240488;23;20234;-81
2023/08/05 09:43:45;;;;;;;0.73;0.70;;;31.80;64.20;;;;;;6241554;23;20213;-80
2023/08/05 09:46:18;;;;;;;0.40;0.40;;;31.90;63.00;;;;;;6237095;23;20555;-81
2023/08/05 09:48:47;;;;;;;0.32;0.32;;;32.00;62.70;;;;;;6240553;23;20193;-82
2023/08/05 09:51:17;;;;;;;0.25;0.25;;;32.00;62.40;;;;;;6238091;23;20171;-83
2023/08/05 09:53:51;;;;;;;1.25;0.55;;;32.00;61.60;;;;;;6239461;23;20534;-82
2023/08/05 09:56:20;;;;;;;0.35;0.35;;;32.10;62.10;;;;;;6240150;23;20170;-82
2023/08/05 09:58:50;;;;;;;0.63;0.40;;;32.20;62.60;;;;;;6237261;23;20177;-82
2023/08/05 10:01:21;;;;;;;0.65;0.65;;;32.20;61.70;;;;;;6235754;23;20244;-82
2023/08/05 10:03:50;;;;;;;0.65;0.57;;;32.30;61.90;;;;;;6238048;23;20167;-81
2023/08/05 10:06:20;;;;;;;1.02;0.80;;;32.40;62.10;;;;;;6235489;23;20168;-82
2023/08/05 10:08:49;;;;;;;0.55;0.50;;;32.40;61.30;;;;;;6234129;23;20257;-81
2023/08/05 10:11:19;;;;;;;0.32;0.32;;;32.50;61.40;;;;;;6233471;23;20194;-82
2023/08/05 10:13:52;;;;;;;0.40;0.40;;;32.50;61.20;;;;;;6235198;23;20544;-83
2023/08/05 10:16:23;;;;;;;0.60;0.50;;;32.60;60.20;;;;;;6234222;23;20282;-82
2023/08/05 10:18:52;;;;;;;0.32;0.32;;;32.70;60.20;;;;;;6239822;23;20878;-81
2023/08/05 10:21:40;;;;;;;1.20;1.10;;;32.70;59.40;;;;;;6241714;23;20190;-82
2023/08/05 10:24:09;;;;;;;1.10;0.40;;;32.80;58.80;;;;;;6241114;23;20178;-82
2023/08/05 10:26:44;;;;;;;0.40;0.40;;;32.70;57.90;;;;;;6236237;23;20166;-84
2023/08/05 10:29:29;;;;;;;1.25;1.15;;;32.80;58.40;;;;;;6238922;23;20624;-82
2023/08/05 10:32:15;;;;;;;0.80;0.40;;;32.80;58.40;;;;;;6237742;23;20169;-83
2023/08/05 10:34:43;;;;;;;0.50;0.50;;;32.90;58.40;;;;;;6239478;22;20625;-82
2023/08/05 10:37:12;;;;;;;0.40;0.40;;;33.00;58.60;;;;;;6242292;23;20166;-82
2023/08/05 10:39:44;;;;;;;0.35;0.35;;;33.00;58.20;;;;;;6238869;23;20174;-83
2023/08/05 10:42:21;;;;;;;0.63;0.63;;;33.10;56.80;;;;;;6239887;23;20209;-81
2023/08/05 10:44:55;;;;;;;0.35;0.30;;;33.10;57.30;;;;;;6241311;23;20158;-82
2023/08/05 10:47:24;;;;;;;0.38;0.38;;;33.20;57.30;;;;;;6242749;23;20186;-83
2023/08/05 10:49:57;;;;;;;0.47;0.47;;;33.30;57.80;;;;;;6211948;23;20170;-82
2023/08/05 10:52:29;;;;;;;0.25;0.25;;;33.30;56.80;;;;;;6238206;23;20508;-82
2023/08/05 10:54:58;;;;;;;0.40;0.40;;;33.40;56.50;;;;;;6214510;23;20197;-81
2023/08/05 10:57:45;;;;;;;0.30;0.30;;;33.40;56.00;;;;;;6239645;23;20281;-83
2023/08/05 11:00:22;;;;;;;1.48;0.32;;;33.50;56.20;;;;;;6232378;23;20170;-83
2023/08/05 11:03:36;;;;;;;1.55;0.95;;;33.60;56.60;;;;;;6237107;22;20190;-82
2023/08/05 11:06:05;;;;;;;2.20;1.30;;;33.60;56.30;;;;;;6210842;23;20627;-84
2023/08/05 11:08:35;;;;;;;4.60;2.08;;;33.70;55.10;;;;;;6241492;23;20175;-82
2023/08/05 11:11:05;;;;;;;1.98;1.42;;;33.70;54.40;;;;;;6236115;23;20249;-84
2023/08/05 11:13:36;;;;;;;1.60;0.93;;;33.70;53.60;;;;;;6238240;23;20205;-86
2023/08/05 11:16:10;;;;;;;1.13;1.02;;;33.70;53.70;;;;;;6214161;23;20622;-86
2023/08/05 11:18:42;;;;;;;4.32;1.63;;;33.80;54.10;;;;;;6239612;23;20280;-84
2023/08/05 11:21:15;;;;;;;0.63;0.52;;;33.80;53.10;;;;;;6240349;23;20163;-87
2023/08/05 11:23:45;;;;;;;0.20;0.20;;;33.90;52.40;;;;;;6243001;23;20159;-88
2023/08/05 11:26:14;;;;;;;0.50;0.50;;;34.00;52.80;;;;;;6242360;23;20528;-86
2023/08/05 11:28:44;;;;;;;0.88;0.82;;;34.00;52.50;;;;;;6241936;23;20210;-87
2023/08/05 11:31:22;;;;;;;1.05;0.90;;;34.00;52.90;;;;;;6241744;23;20177;-86
2023/08/05 11:33:52;;;;;;;0.30;0.30;;;34.00;52.60;;;;;;6241906;23;20618;-87
2023/08/05 11:36:25;;;;;;;0.65;0.38;;;34.10;52.40;;;;;;6242624;23;20189;-86
2023/08/05 11:38:57;;;;;;;0.40;0.40;;;34.20;52.40;;;;;;6242955;23;20163;-87
2023/08/05 11:41:26;;;;;;;0.32;0.30;;;34.10;51.10;;;;;;6243655;23;20240;-85
2023/08/05 11:44:17;;;;;;;0.20;0.20;;;34.30;51.60;;;;;;6243538;23;20250;-89
2023/08/05 11:46:45;;;;;;;1.45;0.47;;;34.30;50.90;;;;;;6247206;23;20169;-90
2023/08/05 11:49:29;;;;;;;0.70;0.60;;;34.30;50.50;;;;;;6247392;23;20209;-89
2023/08/05 11:51:57;;;;;;;0.43;0.35;;;34.40;50.20;;;;;;6242893;23;20182;-86
2023/08/05 11:54:28;;;;;;;0.32;0.32;;;34.40;50.50;;;;;;6243350;23;20209;-83
2023/08/05 11:56:57;;;;;;;0.30;0.30;;;34.40;50.10;;;;;;6243277;23;20229;-84
2023/08/05 11:59:43;;;;;;;1.85;0.45;;;34.50;50.50;;;;;;6239909;23;20168;-83
2023/08/05 12:02:16;;;;;;;2.95;1.20;;;34.50;49.30;;;;;;6242505;23;20186;-82
2023/08/05 12:04:48;;;;;;;1.15;0.40;;;34.60;49.90;;;;;;6243217;23;20162;-83
2023/08/05 12:07:18;;;;;;;0.57;0.57;;;34.60;50.30;;;;;;6242034;23;20246;-81
2023/08/05 12:10:03;;;;;;;0.52;0.40;;;34.60;49.70;;;;;;6239237;23;20197;-83
2023/08/05 12:12:32;;;;;;;0.30;0.30;;;34.60;49.00;;;;;;6241416;23;20268;-83
2023/08/05 12:15:12;;;;;;;0.50;0.40;;;34.60;48.10;;;;;;6243719;23;20197;-82
2023/08/05 12:17:45;;;;;;;0.52;0.50;;;34.70;48.50;;;;;;6244101;23;20532;-84
2023/08/05 12:20:17;;;;;;;0.40;0.40;;;34.80;48.80;;;;;;6242942;23;20225;-83
2023/08/05 12:22:46;;;;;;;0.85;0.45;;;34.80;49.50;;;;;;6240975;23;20186;-82
2023/08/05 12:25:15;;;;;;;0.45;0.40;;;34.80;48.40;;;;;;6243105;23;20205;-82
2023/08/05 12:27:44;;;;;;;0.20;0.20;;;34.80;48.10;;;;;;6215639;23;20177;-82
2023/08/05 12:30:13;;;;;;;0.47;0.32;;;34.80;47.90;;;;;;6242822;23;20177;-83
2023/08/05 12:32:42;;;;;;;0.22;0.22;;;34.90;47.90;;;;;;6212989;23;20213;-83
2023/08/05 12:35:12;;;;;;;0.20;0.20;;;34.90;48.40;;;;;;6244161;23;20616;-84
2023/08/05 12:37:42;;;;;;;0.32;0.32;;;34.90;48.00;;;;;;6241983;23;20638;-87
2023/08/05 12:40:12;;;;;;;0.57;0.47;;;35.00;48.10;;;;;;6243653;23;20158;-89
2023/08/05 12:42:42;;;;;;;0.40;0.38;;;35.00;48.10;;;;;;6240436;23;20178;-87
2023/08/05 12:45:10;;;;;;;0.20;0.20;;;35.00;47.50;;;;;;6243487;23;20174;-86
2023/08/05 12:47:40;;;;;;;0.40;0.40;;;35.00;47.10;;;;;;6243184;23;20254;-86
2023/08/05 12:50:09;;;;;;;0.20;0.20;;;35.10;47.30;;;;;;6243063;23;20170;-88
2023/08/05 12:52:39;;;;;;;0.47;0.32;;;35.00;47.10;;;;;;6241580;22;20173;-88
2023/08/05 12:55:13;;;;;;;0.30;0.22;;;35.10;46.80;;;;;;6243352;23;20155;-87
2023/08/05 12:57:42;;;;;;;0.65;0.57;;;35.10;47.00;;;;;;6245580;23;20926;-88
2023/08/05 13:00:12;;;;;;;0.88;0.40;;;35.20;47.40;;;;;;6218975;23;20167;-89
2023/08/05 13:02:40;;;;;;;0.30;0.30;;;35.20;47.60;;;;;;6246464;23;20194;-90